createdAt,value
2023-02-12T00:00:00.053Z,29.25
2023-02-12T00:02:27.034Z,20.15
2023-02-12T00:04:53.675Z,24.58
2023-02-12T00:07:20.342Z,25.05
2023-02-12T00:09:47.269Z,26.52
2023-02-12T00:12:14.179Z,22.10
2023-02-12T00:14:40.798Z,26.38
2023-02-12T00:17:07.582Z,24.17
2023-02-12T00:19:34.171Z,27.95
2023-02-12T00:22:00.836Z,27.45
2023-02-12T00:24:27.949Z,24.85
2023-02-12T00:26:54.698Z,25.95
2023-02-12T00:29:21.412Z,23.92
2023-02-12T00:31:48.477Z,19.92
2023-02-12T00:34:15.778Z,28.17
2023-02-12T00:36:42.458Z,22.77
2023-02-12T00:39:10.668Z,23.38
2023-02-12T00:41:37.429Z,28.50
2023-02-12T00:44:04.299Z,21.90
2023-02-12T00:46:31.094Z,20.63
2023-02-12T00:48:57.835Z,22.25
2023-02-12T00:51:24.538Z,22.15
2023-02-12T00:53:51.139Z,24.02
2023-02-12T00:56:17.818Z,25.33
2023-02-12T00:58:44.445Z,22.98
2023-02-12T01:01:11.439Z,25.35
2023-02-12T01:03:38.730Z,27.48
2023-02-12T01:06:05.991Z,24.42
2023-02-12T01:08:32.861Z,24.10
2023-02-12T01:11:03.009Z,25.20
2023-02-12T01:13:31.172Z,26.20
2023-02-12T01:16:04.786Z,24.17
2023-02-12T01:18:31.439Z,22.50
2023-02-12T01:20:59.124Z,22.80
2023-02-12T01:23:26.028Z,23.25
2023-02-12T01:25:52.989Z,19.70
2023-02-12T01:28:19.751Z,20.20
2023-02-12T01:30:46.966Z,20.27
2023-02-12T01:33:13.825Z,23.55
2023-02-12T01:35:40.461Z,23.40
2023-02-12T01:38:07.301Z,23.02
2023-02-12T01:40:34.000Z,21.00
2023-02-12T01:43:02.917Z,21.35
2023-02-12T01:45:29.497Z,21.85
2023-02-12T01:47:57.120Z,24.05
2023-02-12T01:50:23.779Z,21.95
2023-02-12T01:52:56.201Z,22.30
2023-02-12T01:55:23.294Z,23.25
2023-02-12T01:57:50.237Z,23.77
2023-02-12T02:00:21.773Z,22.63
2023-02-12T02:02:53.093Z,21.15
2023-02-12T02:05:46.329Z,21.92
2023-02-12T02:08:13.213Z,20.17
2023-02-12T02:10:39.909Z,22.48
2023-02-12T02:13:25.864Z,18.83
2023-02-12T02:15:59.553Z,19.75
2023-02-12T02:18:49.647Z,22.77
2023-02-12T02:21:49.298Z,18.95
2023-02-12T02:24:47.667Z,19.25
2023-02-12T02:28:01.189Z,23.10
2023-02-12T02:30:30.521Z,20.48
2023-02-12T02:33:08.264Z,16.02
2023-02-12T02:35:53.730Z,18.65
2023-02-12T02:38:24.184Z,17.52
2023-02-12T02:41:06.486Z,15.25
2023-02-12T02:43:40.430Z,17.38
2023-02-12T02:46:25.987Z,18.83
2023-02-12T02:48:57.261Z,15.70
2023-02-12T02:51:46.606Z,16.20
2023-02-12T02:54:18.214Z,15.45
2023-02-12T02:56:48.301Z,16.40
2023-02-12T02:59:22.580Z,15.77
2023-02-12T03:02:01.782Z,17.60
2023-02-12T03:04:34.028Z,17.95
2023-02-12T03:07:10.399Z,15.52
2023-02-12T03:10:01.958Z,21.90
2023-02-12T03:12:53.995Z,19.92
2023-02-12T03:15:21.037Z,19.02
2023-02-12T03:17:49.881Z,17.23
2023-02-12T03:20:26.482Z,18.40
2023-02-12T03:23:00.567Z,19.25
2023-02-12T03:25:35.272Z,20.13
2023-02-12T03:28:17.375Z,54.80
2023-02-12T03:31:09.273Z,28.92
2023-02-12T03:34:10.279Z,23.08
2023-02-12T03:36:57.165Z,23.75
2023-02-12T03:39:39.287Z,22.65
2023-02-12T03:42:13.563Z,23.73
2023-02-12T03:44:40.163Z,20.45
2023-02-12T03:47:32.602Z,23.85
2023-02-12T03:50:19.619Z,16.95
2023-02-12T03:52:47.235Z,18.38
2023-02-12T03:55:14.540Z,19.05
2023-02-12T03:57:45.419Z,18.77
2023-02-12T04:00:17.832Z,20.55
2023-02-12T04:02:47.577Z,17.67
2023-02-12T04:05:23.129Z,18.02
2023-02-12T04:10:17.951Z,19.35
2023-02-12T04:13:10.111Z,19.02
2023-02-12T04:15:58.322Z,19.15
2023-02-12T04:18:39.334Z,17.60
2023-02-12T04:21:27.008Z,17.30
2023-02-12T04:24:17.707Z,17.77
2023-02-12T04:27:11.023Z,24.20
2023-02-12T04:30:02.029Z,19.20
2023-02-12T04:32:41.086Z,20.83
2023-02-12T04:35:25.907Z,16.77
2023-02-12T04:37:57.347Z,16.75
2023-02-12T04:40:24.336Z,14.63
2023-02-12T04:42:52.961Z,12.75
2023-02-12T04:45:33.097Z,14.60
2023-02-12T04:48:00.836Z,10.90
2023-02-12T04:50:38.764Z,10.63
2023-02-12T04:53:05.682Z,14.57
2023-02-12T04:55:32.295Z,12.10
2023-02-12T04:57:58.951Z,13.98
2023-02-12T05:00:25.852Z,14.25
2023-02-12T05:02:52.583Z,12.80
2023-02-12T05:05:19.262Z,10.98
2023-02-12T05:07:45.991Z,14.80
2023-02-12T05:10:12.747Z,16.65
2023-02-12T05:12:39.630Z,12.88
2023-02-12T05:15:06.445Z,12.55
2023-02-12T05:17:36.510Z,13.40
2023-02-12T05:20:07.896Z,12.07
2023-02-12T05:22:37.797Z,14.80
2023-02-12T05:25:05.441Z,15.90
2023-02-12T05:27:32.243Z,12.75
2023-02-12T05:29:58.895Z,13.68
2023-02-12T05:32:25.682Z,11.73
2023-02-12T05:34:52.376Z,11.75
2023-02-12T05:37:18.985Z,13.02
2023-02-12T05:39:53.914Z,10.85
2023-02-12T05:42:32.646Z,12.85
2023-02-12T05:45:16.626Z,14.90
2023-02-12T05:47:43.300Z,13.07
2023-02-12T05:50:10.370Z,10.50
2023-02-12T05:52:37.231Z,16.35
2023-02-12T05:55:04.068Z,13.45
2023-02-12T05:57:30.692Z,16.05
2023-02-12T05:59:57.330Z,14.38
2023-02-12T06:02:24.083Z,14.90
2023-02-12T06:04:50.674Z,13.80
2023-02-12T06:07:17.544Z,10.85
2023-02-12T06:09:44.316Z,12.18
2023-02-12T06:12:10.974Z,10.98
2023-02-12T06:14:37.601Z,10.85
2023-02-12T06:17:04.223Z,10.68
2023-02-12T06:19:30.993Z,13.57
2023-02-12T06:21:57.810Z,10.73
2023-02-12T06:24:24.480Z,14.60
2023-02-12T06:26:51.965Z,11.13
2023-02-12T06:29:20.122Z,11.13
2023-02-12T06:31:47.363Z,13.13
2023-02-12T06:34:17.981Z,13.15
2023-02-12T06:36:45.987Z,10.35
2023-02-12T06:39:14.921Z,11.70
2023-02-12T06:41:42.490Z,10.73
2023-02-12T06:44:11.340Z,10.32
2023-02-12T06:46:38.085Z,9.45
2023-02-12T06:49:04.779Z,8.43
2023-02-12T06:51:32.182Z,8.30
2023-02-12T06:53:58.751Z,12.00
2023-02-12T06:56:27.025Z,10.35
2023-02-12T06:58:56.790Z,9.18
2023-02-12T07:01:26.406Z,10.23
2023-02-12T07:04:02.240Z,9.35
2023-02-12T07:06:31.039Z,9.82
2023-02-12T07:08:58.311Z,11.65
2023-02-12T07:11:30.997Z,9.80
2023-02-12T07:13:58.064Z,9.80
2023-02-12T07:16:25.531Z,11.75
2023-02-12T07:18:52.370Z,11.00
2023-02-12T07:21:19.728Z,10.00
2023-02-12T07:23:50.962Z,10.50
2023-02-12T07:26:19.975Z,9.02
2023-02-12T07:28:46.504Z,9.30
2023-02-12T07:31:19.505Z,12.02
2023-02-12T07:33:47.326Z,9.88
2023-02-12T07:36:16.701Z,11.73
2023-02-12T07:38:43.954Z,8.38
2023-02-12T07:41:16.218Z,8.05
2023-02-12T07:43:45.225Z,9.10
2023-02-12T07:46:23.109Z,10.95
2023-02-12T07:48:52.064Z,11.45
2023-02-12T07:51:19.545Z,8.52
2023-02-12T07:53:46.707Z,13.68
2023-02-12T07:56:17.109Z,12.48
2023-02-12T07:58:45.535Z,13.82
2023-02-12T08:01:20.148Z,10.10
2023-02-12T08:03:47.874Z,12.10
2023-02-12T08:06:18.137Z,11.98
2023-02-12T08:08:45.840Z,13.07
2023-02-12T08:11:14.156Z,16.30
2023-02-12T08:13:41.308Z,12.02
2023-02-12T08:16:14.207Z,13.93
2023-02-12T08:18:41.503Z,15.57
2023-02-12T08:21:20.431Z,12.20
2023-02-12T08:23:50.952Z,13.18
2023-02-12T08:26:22.247Z,13.68
2023-02-12T08:28:55.317Z,12.43
2023-02-12T08:31:27.958Z,15.60
2023-02-12T08:33:55.475Z,11.65
2023-02-12T08:36:39.240Z,12.40
2023-02-12T08:39:07.585Z,14.43
2023-02-12T08:41:35.151Z,14.50
2023-02-12T08:44:04.228Z,15.88
2023-02-12T08:46:36.604Z,15.43
2023-02-12T08:49:16.239Z,17.67
2023-02-12T08:51:48.766Z,17.48
2023-02-12T08:54:24.405Z,14.02
2023-02-12T08:59:18.309Z,15.25
2023-02-12T09:01:45.387Z,17.52
2023-02-12T09:04:18.286Z,18.55
2023-02-12T09:06:46.315Z,14.90
2023-02-12T09:09:13.944Z,13.75
2023-02-12T09:11:41.204Z,19.38
2023-02-12T09:14:12.773Z,14.30
2023-02-12T09:16:41.252Z,17.00
2023-02-12T09:19:09.188Z,15.30
2023-02-12T09:21:36.152Z,16.63
2023-02-12T09:24:03.618Z,15.73
2023-02-12T09:26:31.123Z,15.40
2023-02-12T09:28:57.880Z,18.42
2023-02-12T09:31:29.465Z,15.93
2023-02-12T09:34:00.182Z,14.68
2023-02-12T09:36:27.081Z,17.50
2023-02-12T09:38:57.390Z,12.98
2023-02-12T09:41:33.922Z,19.10
2023-02-12T09:44:00.497Z,14.38
2023-02-12T09:46:33.794Z,16.98
2023-02-12T09:49:00.571Z,16.63
2023-02-12T09:51:30.876Z,17.25
2023-02-12T09:54:05.890Z,17.83
2023-02-12T09:56:35.476Z,13.40
2023-02-12T09:59:06.351Z,14.15
2023-02-12T10:01:34.144Z,16.38
2023-02-12T10:04:01.889Z,15.18
2023-02-12T10:06:34.455Z,14.43
2023-02-12T10:09:24.017Z,14.48
2023-02-12T10:12:15.142Z,27.55
2023-02-12T10:14:44.459Z,12.27
2023-02-12T10:17:19.651Z,15.65
2023-02-12T10:20:23.308Z,13.82
2023-02-12T10:23:06.573Z,13.45
2023-02-12T10:31:16.489Z,12.00
2023-02-12T10:33:49.194Z,11.10
2023-02-12T10:36:49.661Z,14.05
2023-02-12T10:39:23.624Z,12.50
2023-02-12T10:42:01.277Z,11.57
2023-02-12T10:44:29.001Z,14.05
2023-02-12T10:46:56.002Z,12.15
2023-02-12T10:49:22.972Z,9.25
2023-02-12T10:52:16.200Z,10.55
2023-02-12T10:54:49.183Z,11.25
2023-02-12T10:57:21.950Z,11.18
2023-02-12T10:59:50.905Z,10.05
2023-02-12T11:02:33.033Z,10.55
2023-02-12T11:05:16.099Z,10.35
2023-02-12T11:07:48.737Z,12.15
2023-02-12T11:10:31.920Z,10.75
2023-02-12T11:13:00.532Z,10.18
2023-02-12T11:15:34.884Z,9.63
2023-02-12T11:18:05.804Z,10.85
2023-02-12T11:20:50.565Z,10.40
2023-02-12T11:23:39.382Z,8.93
2023-02-12T11:26:18.282Z,6.65
2023-02-12T11:28:59.393Z,9.35
2023-02-12T11:31:35.292Z,7.57
2023-02-12T11:34:19.760Z,10.60
2023-02-12T11:36:49.358Z,9.93
2023-02-12T11:39:46.381Z,10.52
2023-02-12T11:42:18.648Z,10.65
2023-02-12T11:44:52.666Z,8.13
2023-02-12T11:47:27.378Z,7.15
2023-02-12T11:49:58.401Z,8.23
2023-02-12T11:52:29.758Z,8.52
2023-02-12T11:55:01.845Z,6.22
2023-02-12T11:57:43.473Z,5.07
2023-02-12T12:00:21.468Z,6.60
2023-02-12T12:03:02.468Z,6.43
2023-02-12T12:05:42.883Z,6.60
2023-02-12T12:08:21.087Z,6.07
2023-02-12T12:10:54.594Z,4.53
2023-02-12T12:13:28.009Z,6.50
2023-02-12T12:16:25.350Z,5.38
2023-02-12T12:19:32.071Z,5.63
2023-02-12T12:22:24.263Z,6.95
2023-02-12T12:24:50.928Z,5.82
2023-02-12T12:27:51.233Z,7.93
2023-02-12T12:30:47.291Z,7.07
2023-02-12T12:33:35.051Z,8.32
2023-02-12T12:36:13.840Z,10.20
2023-02-12T12:39:02.846Z,5.88
2023-02-12T12:41:41.822Z,6.38
2023-02-12T12:44:17.295Z,6.32
2023-02-12T12:47:06.016Z,4.85
2023-02-12T12:49:55.114Z,6.53
2023-02-12T12:52:40.180Z,7.88
2023-02-12T12:55:15.611Z,16.65
2023-02-12T12:57:44.210Z,5.53
2023-02-12T13:00:25.876Z,6.25
2023-02-12T13:03:26.228Z,7.18
2023-02-12T13:06:20.442Z,7.80
2023-02-12T13:09:11.406Z,7.28
2023-02-12T13:11:47.638Z,7.15
2023-02-12T13:14:29.646Z,6.32
2023-02-12T13:17:14.428Z,8.77
2023-02-12T13:19:43.828Z,9.93
2023-02-12T13:22:19.457Z,8.90
2023-02-12T13:25:02.301Z,12.30
2023-02-12T13:27:35.821Z,8.07
2023-02-12T13:30:17.400Z,6.82
2023-02-12T13:32:49.507Z,9.88
2023-02-12T13:35:21.051Z,7.72
2023-02-12T13:37:51.275Z,8.23
2023-02-12T13:40:30.159Z,8.23
2023-02-12T13:43:21.524Z,7.88
2023-02-12T13:46:07.736Z,9.93
2023-02-12T13:49:13.033Z,10.55
2023-02-12T13:51:49.765Z,10.40
2023-02-12T13:54:44.303Z,9.95
2023-02-12T13:57:16.766Z,7.00
2023-02-12T13:59:48.836Z,8.32
2023-02-12T14:02:47.523Z,8.95
2023-02-12T14:05:24.508Z,10.80
2023-02-12T14:07:55.446Z,7.88
2023-02-12T14:10:51.510Z,21.13
2023-02-12T14:13:24.939Z,10.15
2023-02-12T14:15:53.808Z,11.32
2023-02-12T14:18:33.885Z,9.40
2023-02-12T14:21:12.441Z,10.52
2023-02-12T14:23:43.763Z,9.63
2023-02-12T14:26:16.372Z,9.90
2023-02-12T14:28:46.149Z,12.10
2023-02-12T14:31:18.972Z,9.98
2023-02-12T14:33:47.583Z,13.93
2023-02-12T14:36:14.373Z,12.18
2023-02-12T14:38:47.530Z,12.43
2023-02-12T14:41:34.704Z,12.10
2023-02-12T14:44:23.139Z,11.07
2023-02-12T14:46:58.706Z,9.80
2023-02-12T14:49:52.603Z,10.88
2023-02-12T14:52:27.670Z,10.80
2023-02-12T14:55:02.576Z,8.43
2023-02-12T14:57:36.261Z,9.85
2023-02-12T15:00:27.828Z,8.60
2023-02-12T15:03:11.941Z,8.23
2023-02-12T15:05:47.194Z,13.88
2023-02-12T15:08:41.733Z,12.40
2023-02-12T15:11:19.662Z,12.98
2023-02-12T15:13:53.517Z,11.05
2023-02-12T15:16:29.873Z,9.77
2023-02-12T15:19:05.180Z,9.40
2023-02-12T15:21:32.823Z,12.95
2023-02-12T15:24:08.385Z,9.38
2023-02-12T15:29:21.420Z,12.25
2023-02-12T15:31:54.285Z,10.05
2023-02-12T15:34:24.124Z,10.10
2023-02-12T15:36:51.188Z,11.20
2023-02-12T15:39:21.582Z,12.10
2023-02-12T15:41:49.691Z,11.40
2023-02-12T15:44:23.871Z,10.95
2023-02-12T15:47:08.702Z,13.10
2023-02-12T15:49:37.983Z,10.55
2023-02-12T15:52:33.488Z,13.35
2023-02-12T15:55:02.672Z,12.73
2023-02-12T15:57:29.359Z,17.95
2023-02-12T16:00:02.641Z,19.23
2023-02-12T16:02:39.477Z,17.08
2023-02-12T16:05:07.122Z,16.17
2023-02-12T16:07:36.944Z,14.25
2023-02-12T16:10:05.291Z,19.05
2023-02-12T16:12:34.676Z,20.17
2023-02-12T16:15:01.803Z,15.65
2023-02-12T16:17:29.961Z,10.07
2023-02-12T16:20:00.847Z,14.30
2023-02-12T16:22:33.120Z,11.82
2023-02-12T16:25:02.393Z,14.88
2023-02-12T16:27:32.346Z,22.75
2023-02-12T16:30:05.372Z,20.23
2023-02-12T16:32:41.111Z,17.70
2023-02-12T16:35:29.942Z,17.17
2023-02-12T16:38:01.419Z,15.43
2023-02-12T16:40:31.779Z,12.57
2023-02-12T16:42:59.537Z,17.42
2023-02-12T16:45:29.687Z,17.20
2023-02-12T16:47:59.657Z,18.33
2023-02-12T16:50:30.361Z,26.42
2023-02-12T16:53:01.593Z,19.73
2023-02-12T16:55:29.426Z,20.05
2023-02-12T16:57:56.451Z,20.60
2023-02-12T17:00:24.125Z,22.55
2023-02-12T17:02:50.882Z,23.33
2023-02-12T17:05:18.418Z,27.38
2023-02-12T17:07:45.267Z,27.08
2023-02-12T17:10:14.126Z,26.73
2023-02-12T17:12:49.193Z,28.15
2023-02-12T17:15:42.697Z,24.75
2023-02-12T17:18:11.390Z,23.52
2023-02-12T17:20:38.843Z,25.17
2023-02-12T17:23:06.353Z,28.88
2023-02-12T17:25:34.027Z,29.17
2023-02-12T17:28:00.787Z,33.60
2023-02-12T17:30:28.994Z,31.50
2023-02-12T17:32:55.700Z,25.33
2023-02-12T17:35:25.254Z,24.88
2023-02-12T17:37:53.074Z,28.38
2023-02-12T17:40:19.877Z,29.48
2023-02-12T17:42:46.701Z,24.40
2023-02-12T17:45:13.408Z,26.73
2023-02-12T17:47:40.355Z,25.50
2023-02-12T17:50:13.122Z,26.02
2023-02-12T17:52:39.989Z,25.40
2023-02-12T17:55:08.142Z,22.75
2023-02-12T17:57:34.815Z,26.27
2023-02-12T18:00:01.508Z,27.05
2023-02-12T18:02:38.458Z,24.45
2023-02-12T18:05:05.519Z,24.35
2023-02-12T18:07:37.170Z,24.65
2023-02-12T18:10:05.755Z,25.23
2023-02-12T18:12:33.359Z,27.08
2023-02-12T18:15:01.995Z,26.08
2023-02-12T18:17:28.677Z,24.80
2023-02-12T18:19:55.590Z,21.02
2023-02-12T18:22:23.179Z,24.20
2023-02-12T18:24:50.144Z,22.10
2023-02-12T18:27:18.584Z,23.05
2023-02-12T18:29:45.787Z,24.05
2023-02-12T18:32:16.020Z,22.13
2023-02-12T18:34:46.043Z,20.17
2023-02-12T18:37:13.757Z,18.65
2023-02-12T18:39:41.028Z,20.55
2023-02-12T18:42:08.064Z,21.15
2023-02-12T18:44:35.099Z,17.63
2023-02-12T18:47:01.878Z,16.50
2023-02-12T18:49:28.668Z,19.13
2023-02-12T18:51:56.721Z,19.88
2023-02-12T18:54:23.511Z,18.50
2023-02-12T18:56:52.661Z,17.77
2023-02-12T18:59:20.460Z,22.23
2023-02-12T19:01:50.650Z,19.50
2023-02-12T19:04:20.115Z,20.42
2023-02-12T19:06:50.228Z,19.65
2023-02-12T19:09:20.193Z,15.77
2023-02-12T19:11:48.557Z,19.63
2023-02-12T19:14:17.282Z,17.13
2023-02-12T19:16:47.805Z,18.33
2023-02-12T19:19:15.327Z,19.13
2023-02-12T19:21:42.600Z,21.25
2023-02-12T19:24:12.402Z,21.80
2023-02-12T19:26:39.934Z,22.50
2023-02-12T19:29:07.385Z,20.30
2023-02-12T19:31:37.544Z,18.08
2023-02-12T19:34:14.589Z,19.25
2023-02-12T19:36:41.581Z,17.92
2023-02-12T19:39:08.312Z,20.35
2023-02-12T19:41:40.836Z,16.33
2023-02-12T19:44:11.853Z,17.95
2023-02-12T19:46:40.546Z,20.95
2023-02-12T19:49:10.615Z,18.15
2023-02-12T19:51:39.484Z,20.13
2023-02-12T19:54:10.359Z,19.58
2023-02-12T19:56:37.662Z,16.23
2023-02-12T19:59:06.416Z,21.50
2023-02-12T20:01:34.466Z,20.15
2023-02-12T20:04:02.301Z,21.67
2023-02-12T20:06:33.036Z,27.92
2023-02-12T20:08:59.889Z,24.88
2023-02-12T20:11:28.799Z,19.25
2023-02-12T20:13:56.549Z,19.25
2023-02-12T20:16:27.361Z,21.70
2023-02-12T20:18:55.012Z,19.55
2023-02-12T20:21:25.448Z,23.88
2023-02-12T20:23:52.213Z,21.67
2023-02-12T20:26:22.639Z,28.25
2023-02-12T20:28:50.650Z,18.80
2023-02-12T20:31:20.200Z,22.63
2023-02-12T20:33:47.880Z,25.77
2023-02-12T20:36:15.542Z,21.63
2023-02-12T20:38:44.624Z,23.48
2023-02-12T20:41:11.828Z,24.85
2023-02-12T20:43:39.318Z,23.35
2023-02-12T20:46:07.393Z,24.75
2023-02-12T20:48:34.327Z,25.27
2023-02-12T20:51:12.368Z,24.10
2023-02-12T20:53:40.058Z,24.83
2023-02-12T20:56:10.101Z,22.60
2023-02-12T20:58:38.811Z,20.02
2023-02-12T21:01:07.728Z,23.70
2023-02-12T21:03:34.768Z,19.40
2023-02-12T21:06:02.183Z,21.88
2023-02-12T21:08:29.593Z,20.88
2023-02-12T21:11:04.819Z,24.38
2023-02-12T21:13:31.649Z,25.70
2023-02-12T21:16:07.452Z,23.13
2023-02-12T21:18:34.359Z,23.10
2023-02-12T21:21:10.523Z,21.80
2023-02-12T21:23:38.093Z,23.73
2023-02-12T21:26:11.923Z,21.20
2023-02-12T21:28:39.192Z,28.73
2023-02-12T21:31:13.583Z,28.48
2023-02-12T21:33:41.873Z,28.05
2023-02-12T21:36:11.491Z,30.73
2023-02-12T21:38:40.750Z,30.98
2023-02-12T21:41:07.535Z,34.15
2023-02-12T21:43:35.236Z,28.15
2023-02-12T21:46:02.294Z,30.08
2023-02-12T21:48:29.070Z,29.58
2023-02-12T21:50:56.165Z,29.45
2023-02-12T21:53:22.980Z,25.17
2023-02-12T21:55:49.790Z,28.17
2023-02-12T21:58:16.510Z,27.73
2023-02-12T22:00:43.199Z,27.38
2023-02-12T22:03:09.883Z,27.58
2023-02-12T22:05:36.561Z,26.40
2023-02-12T22:08:03.560Z,23.00
2023-02-12T22:10:30.158Z,25.30
2023-02-12T22:12:56.953Z,25.23
2023-02-12T22:15:24.050Z,25.92
2023-02-12T22:17:50.710Z,25.33
2023-02-12T22:20:17.617Z,24.17
2023-02-12T22:22:44.338Z,22.52
2023-02-12T22:25:10.914Z,22.73
2023-02-12T22:27:37.576Z,23.67
2023-02-12T22:30:04.717Z,20.83
2023-02-12T22:32:31.489Z,22.33
2023-02-12T22:34:58.097Z,22.77
2023-02-12T22:37:24.765Z,20.52
2023-02-12T22:39:51.768Z,28.27
2023-02-12T22:42:18.494Z,25.63
2023-02-12T22:44:45.249Z,26.38
2023-02-12T22:47:11.979Z,23.70
2023-02-12T22:49:38.603Z,30.08
2023-02-12T22:52:05.323Z,30.08
2023-02-12T22:54:31.887Z,27.30
2023-02-12T22:56:58.521Z,27.38
2023-02-12T22:59:25.341Z,26.63
2023-02-12T23:01:52.138Z,28.17
2023-02-12T23:04:19.282Z,30.30
2023-02-12T23:06:46.720Z,32.15
2023-02-12T23:09:15.131Z,27.55
2023-02-12T23:11:41.834Z,23.92
2023-02-12T23:14:08.489Z,25.60
2023-02-12T23:16:35.218Z,25.55
2023-02-12T23:19:02.378Z,23.42
2023-02-12T23:21:31.508Z,27.20
2023-02-12T23:24:01.267Z,26.02
2023-02-12T23:26:29.400Z,21.23
2023-02-12T23:28:56.879Z,25.48
2023-02-12T23:31:24.295Z,21.48
2023-02-12T23:33:51.498Z,24.52
2023-02-12T23:36:18.294Z,22.50
2023-02-12T23:38:44.925Z,24.73
2023-02-12T23:41:11.906Z,23.35
2023-02-12T23:43:38.626Z,26.95
2023-02-12T23:46:05.736Z,27.38
2023-02-12T23:48:32.530Z,34.85
2023-02-12T23:50:59.583Z,24.58
2023-02-12T23:53:26.400Z,29.48
2023-02-12T23:55:53.213Z,29.98
2023-02-12T23:58:20.017Z,24.65
